Time;durP1;ratioP1;P1;durP2;ratioP2;P2;SDS_P1;SDS_P2;PMS_P1;PMS_P2;Temp;Humidity;BMP_temperature;BMP_pressure;BME280_temperature;BME280_humidity;BME280_pressure;Samples;Min_cycle;Max_cycle;Signal;HPM_P1;HPM_P2
2021/07/29 00:02:25;;;;;;;6.90;2.42;;;16.50;81.20;;;;;;5085575;28;20039;-68
2021/07/29 00:04:51;;;;;;;4.43;2.15;;;16.50;81.10;;;;;;5088354;28;20091;-68
2021/07/29 00:07:17;;;;;;;5.20;2.35;;;16.50;81.00;;;;;;5072067;28;20145;-68
2021/07/29 00:09:46;;;;;;;4.15;2.15;;;16.40;81.20;;;;;;5087759;28;20029;-68
2021/07/29 00:12:12;;;;;;;3.53;1.98;;;16.30;81.50;;;;;;5085479;28;20531;-68
2021/07/29 00:14:38;;;;;;;3.47;2.20;;;16.20;81.60;;;;;;5061984;28;20032;-68
2021/07/29 00:17:06;;;;;;;5.70;2.10;;;16.10;81.70;;;;;;5088157;28;20031;-68
2021/07/29 00:19:32;;;;;;;4.93;2.20;;;16.00;81.80;;;;;;5063435;28;20021;-67
2021/07/29 00:21:57;;;;;;;4.68;2.10;;;16.00;81.70;;;;;;5087002;28;20016;-68
2021/07/29 00:24:26;;;;;;;6.18;2.83;;;16.00;81.70;;;;;;5086699;28;20028;-68
2021/07/29 00:26:51;;;;;;;6.13;2.10;;;15.90;81.90;;;;;;5088258;28;20019;-68
2021/07/29 00:29:17;;;;;;;6.13;2.72;;;15.80;82.00;;;;;;5087568;28;20016;-68
2021/07/29 00:31:44;;;;;;;5.22;2.13;;;15.80;81.80;;;;;;5088789;28;20020;-67
2021/07/29 00:34:09;;;;;;;5.20;2.03;;;15.80;81.40;;;;;;5087233;28;20069;-68
2021/07/29 00:36:35;;;;;;;6.13;2.60;;;15.80;81.60;;;;;;5089384;28;20480;-68
2021/07/29 00:39:02;;;;;;;6.80;2.20;;;15.70;81.70;;;;;;5088809;28;20032;-68
2021/07/29 00:41:28;;;;;;;4.80;2.10;;;15.70;81.40;;;;;;5085537;28;20031;-68
2021/07/29 00:44:04;;;;;;;4.38;2.28;;;15.70;81.20;;;;;;5085321;28;20024;-68
2021/07/29 00:46:32;;;;;;;5.65;2.30;;;15.70;81.10;;;;;;5087986;28;20028;-68
2021/07/29 00:48:59;;;;;;;4.22;2.25;;;15.80;81.10;;;;;;5087758;28;20395;-68
2021/07/29 00:51:26;;;;;;;5.05;2.05;;;15.70;80.70;;;;;;5054742;28;20027;-68
2021/07/29 00:53:52;;;;;;;4.07;2.28;;;15.70;80.80;;;;;;5087200;28;20043;-68
2021/07/29 00:56:18;;;;;;;4.00;2.40;;;15.70;80.70;;;;;;5088540;28;20388;-69
2021/07/29 00:58:44;;;;;;;6.05;2.20;;;15.80;80.80;;;;;;5068663;28;20031;-68
2021/07/29 01:01:09;;;;;;;3.45;2.13;;;15.90;80.50;;;;;;5088363;28;20371;-68
2021/07/29 01:03:35;;;;;;;4.00;2.30;;;16.00;80.30;;;;;;5087048;28;20052;-68
2021/07/29 01:06:01;;;;;;;5.45;2.20;;;16.00;80.30;;;;;;5053230;28;20038;-68
2021/07/29 01:08:27;;;;;;;3.85;1.88;;;16.00;79.60;;;;;;5082498;28;20038;-68
2021/07/29 01:10:52;;;;;;;5.53;2.20;;;16.00;79.60;;;;;;5088179;28;20024;-68
2021/07/29 01:13:18;;;;;;;4.22;2.03;;;16.00;79.40;;;;;;5092965;28;20035;-68
2021/07/29 01:15:44;;;;;;;5.45;2.10;;;16.00;79.40;;;;;;5086623;28;20035;-68
2021/07/29 01:18:10;;;;;;;5.00;2.28;;;16.00;79.60;;;;;;5069326;28;20031;-68
2021/07/29 01:20:35;;;;;;;6.28;2.30;;;15.90;79.80;;;;;;5087972;28;20032;-69
2021/07/29 01:23:01;;;;;;;4.68;2.30;;;15.90;80.00;;;;;;5087579;28;20031;-68
2021/07/29 01:25:27;;;;;;;7.53;2.35;;;15.80;80.30;;;;;;5086473;28;20032;-68
2021/07/29 01:27:52;;;;;;;4.18;2.15;;;15.70;80.70;;;;;;5070226;28;20157;-68
2021/07/29 01:30:18;;;;;;;4.55;2.55;;;15.70;80.50;;;;;;5085158;28;20024;-68
2021/07/29 01:32:43;;;;;;;4.88;2.50;;;15.70;80.60;;;;;;5087369;28;20024;-68
2021/07/29 01:35:10;;;;;;;5.13;2.15;;;15.80;80.50;;;;;;5085446;28;20043;-68
2021/07/29 01:37:39;;;;;;;5.15;2.30;;;15.80;80.70;;;;;;5086884;28;20035;-68
2021/07/29 01:40:06;;;;;;;4.07;2.38;;;15.80;80.50;;;;;;5065472;28;20028;-68
2021/07/29 01:42:31;;;;;;;7.40;2.30;;;15.80;80.10;;;;;;5087812;28;20035;-68
2021/07/29 01:44:57;;;;;;;5.30;2.13;;;15.80;80.20;;;;;;5085736;28;20016;-68
2021/07/29 01:47:22;;;;;;;5.65;2.53;;;15.90;80.40;;;;;;5085778;28;20109;-68
2021/07/29 01:49:48;;;;;;;4.63;2.47;;;15.80;80.50;;;;;;5086789;28;20476;-68
2021/07/29 01:52:13;;;;;;;8.95;2.90;;;15.80;81.20;;;;;;5082145;28;20020;-68
2021/07/29 01:54:39;;;;;;;4.75;2.33;;;15.80;81.30;;;;;;5085740;28;20095;-68
2021/07/29 01:57:06;;;;;;;6.25;2.50;;;15.90;81.40;;;;;;5085718;28;20035;-68
2021/07/29 01:59:35;;;;;;;5.80;2.65;;;15.90;81.60;;;;;;5053663;28;20111;-68
2021/07/29 02:02:01;;;;;;;5.20;2.60;;;16.00;81.20;;;;;;5086162;28;20510;-68
2021/07/29 02:04:28;;;;;;;5.95;3.00;;;16.10;81.20;;;;;;5086176;28;20085;-68
2021/07/29 02:06:53;;;;;;;8.52;2.63;;;16.20;81.00;;;;;;5065273;28;20025;-68
2021/07/29 02:09:19;;;;;;;6.15;2.70;;;16.20;81.10;;;;;;5075690;28;20032;-68
2021/07/29 02:11:49;;;;;;;5.70;2.55;;;16.20;81.00;;;;;;5087653;28;20017;-68
2021/07/29 02:14:18;;;;;;;7.20;2.72;;;16.30;80.90;;;;;;5083204;28;20047;-68
2021/07/29 02:16:44;;;;;;;5.68;3.00;;;16.30;80.90;;;;;;5084408;28;20024;-68
2021/07/29 02:19:09;;;;;;;4.50;2.78;;;16.30;80.70;;;;;;5068253;28;20042;-68
2021/07/29 02:21:35;;;;;;;6.22;2.70;;;16.30;80.60;;;;;;5087503;28;20512;-68
2021/07/29 02:24:00;;;;;;;6.00;2.42;;;16.30;80.50;;;;;;5085527;28;20093;-66
2021/07/29 02:26:26;;;;;;;8.23;2.47;;;16.40;80.50;;;;;;5049283;28;20012;-68
2021/07/29 02:28:52;;;;;;;3.90;2.40;;;16.30;80.60;;;;;;5086751;28;20048;-68
2021/07/29 02:31:17;;;;;;;5.28;2.25;;;16.30;80.40;;;;;;5086747;28;20027;-68
2021/07/29 02:33:43;;;;;;;5.05;2.55;;;16.30;80.70;;;;;;5084730;28;20024;-68
2021/07/29 02:36:08;;;;;;;4.10;2.72;;;16.20;80.80;;;;;;5085700;28;21936;-68
2021/07/29 02:38:34;;;;;;;3.88;2.33;;;16.20;80.90;;;;;;5086715;28;20024;-68
2021/07/29 02:41:00;;;;;;;7.40;2.70;;;16.10;81.10;;;;;;5085913;28;20040;-68
2021/07/29 02:43:25;;;;;;;3.38;2.25;;;16.00;81.30;;;;;;5087043;28;20081;-68
2021/07/29 02:45:51;;;;;;;4.68;2.33;;;16.00;81.50;;;;;;5084209;28;20524;-68
2021/07/29 02:48:16;;;;;;;4.90;2.53;;;16.00;81.70;;;;;;5061235;28;20020;-68
2021/07/29 02:50:42;;;;;;;7.93;2.90;;;16.00;81.20;;;;;;5063189;28;20016;-68
2021/07/29 02:53:08;;;;;;;5.57;2.60;;;16.00;80.90;;;;;;5087504;28;20540;-67
2021/07/29 02:55:33;;;;;;;3.97;2.40;;;16.00;80.90;;;;;;5085468;28;20093;-68
2021/07/29 02:57:59;;;;;;;6.60;2.53;;;16.10;80.70;;;;;;5068269;28;20109;-67
2021/07/29 03:00:24;;;;;;;6.68;2.65;;;16.10;80.20;;;;;;5066644;28;20024;-68
2021/07/29 03:02:50;;;;;;;7.57;2.55;;;16.20;80.10;;;;;;5085287;28;20028;-68
2021/07/29 03:05:15;;;;;;;4.45;2.30;;;16.20;80.20;;;;;;5086004;28;20027;-68
2021/07/29 03:07:41;;;;;;;2.95;1.90;;;16.30;79.70;;;;;;5086823;28;20020;-68
2021/07/29 03:10:07;;;;;;;4.35;2.30;;;16.30;79.30;;;;;;5086909;28;20028;-68
2021/07/29 03:12:33;;;;;;;3.83;2.55;;;16.30;79.10;;;;;;5090307;28;20019;-68
2021/07/29 03:14:58;;;;;;;7.63;2.60;;;16.30;78.80;;;;;;5086841;28;20035;-68
2021/07/29 03:17:24;;;;;;;2.90;1.92;;;16.30;78.60;;;;;;5071349;28;20040;-68
2021/07/29 03:19:49;;;;;;;2.50;1.92;;;16.30;78.60;;;;;;5089330;28;20047;-68
2021/07/29 03:22:15;;;;;;;3.65;1.92;;;16.30;78.30;;;;;;5089190;28;20038;-68
2021/07/29 03:24:40;;;;;;;4.22;2.22;;;16.30;78.40;;;;;;5071893;28;20747;-68
2021/07/29 03:27:06;;;;;;;4.50;1.95;;;16.30;78.30;;;;;;5087405;28;20375;-68
2021/07/29 03:29:31;;;;;;;5.82;2.58;;;16.40;78.50;;;;;;5089852;28;20024;-68
2021/07/29 03:31:57;;;;;;;3.50;2.25;;;16.30;78.50;;;;;;5090341;28;20044;-70
2021/07/29 03:34:23;;;;;;;4.45;2.30;;;16.30;78.70;;;;;;5089442;28;20040;-68
2021/07/29 03:36:48;;;;;;;4.90;2.22;;;16.30;78.60;;;;;;5072665;28;20077;-68
2021/07/29 03:39:14;;;;;;;4.22;2.40;;;16.40;78.70;;;;;;5071662;28;20072;-68
2021/07/29 03:41:40;;;;;;;3.28;2.10;;;16.30;78.70;;;;;;5067341;28;20036;-67
2021/07/29 03:44:06;;;;;;;8.18;2.80;;;16.30;78.80;;;;;;5088548;28;20024;-67
2021/07/29 03:46:31;;;;;;;5.22;2.00;;;16.30;78.90;;;;;;5070689;28;20019;-68
2021/07/29 03:48:57;;;;;;;6.50;2.70;;;16.30;78.80;;;;;;5089469;28;20099;-67
2021/07/29 03:51:24;;;;;;;7.68;2.75;;;16.20;79.10;;;;;;5070083;28;20496;-68
2021/07/29 03:53:50;;;;;;;4.57;2.60;;;16.20;79.00;;;;;;5088673;28;20081;-67
2021/07/29 03:56:16;;;;;;;6.22;2.60;;;16.20;79.30;;;;;;5089471;28;20438;-68
2021/07/29 03:58:41;;;;;;;7.40;2.20;;;16.10;79.20;;;;;;5088088;28;20089;-68
2021/07/29 04:01:09;;;;;;;3.88;2.42;;;16.10;79.50;;;;;;5089276;28;20024;-68
2021/07/29 04:03:35;;;;;;;6.22;2.28;;;16.10;79.60;;;;;;5087322;28;20032;-68
2021/07/29 04:06:01;;;;;;;7.05;2.60;;;16.10;79.40;;;;;;5071981;28;20019;-68
2021/07/29 04:08:27;;;;;;;5.35;2.60;;;16.20;79.30;;;;;;5088752;28;20036;-68
2021/07/29 04:10:53;;;;;;;5.20;2.33;;;16.10;79.60;;;;;;5071301;28;20022;-68
2021/07/29 04:13:19;;;;;;;5.38;2.50;;;16.20;79.70;;;;;;5095866;28;20035;-68
2021/07/29 04:15:44;;;;;;;5.15;2.60;;;16.10;79.60;;;;;;5088749;28;20031;-68
2021/07/29 04:18:10;;;;;;;5.43;2.67;;;16.10;80.00;;;;;;5091899;28;21573;-68
2021/07/29 04:20:36;;;;;;;5.65;2.30;;;16.10;80.10;;;;;;5069277;28;20039;-68
2021/07/29 04:23:01;;;;;;;4.45;2.33;;;16.10;80.30;;;;;;5084915;28;20119;-67
2021/07/29 04:25:27;;;;;;;5.43;2.38;;;16.10;80.20;;;;;;5071091;28;20028;-67
2021/07/29 04:27:52;;;;;;;3.65;2.50;;;16.10;80.30;;;;;;5088266;28;20017;-68
2021/07/29 04:30:18;;;;;;;4.28;2.85;;;16.20;80.10;;;;;;5087549;28;20373;-68
2021/07/29 04:32:44;;;;;;;5.10;2.08;;;16.20;80.40;;;;;;5087536;28;20048;-68
2021/07/29 04:35:09;;;;;;;5.57;2.90;;;16.10;80.70;;;;;;5088597;28;20116;-68
2021/07/29 04:37:35;;;;;;;4.13;2.55;;;16.10;80.80;;;;;;5088262;28;20025;-67
2021/07/29 04:40:02;;;;;;;3.05;2.03;;;16.20;80.70;;;;;;5089135;28;20241;-68
2021/07/29 04:42:27;;;;;;;6.75;2.70;;;16.20;80.60;;;;;;5086766;28;20024;-68
2021/07/29 04:44:53;;;;;;;5.15;2.53;;;16.20;80.60;;;;;;5088825;28;20031;-68
2021/07/29 04:47:18;;;;;;;4.80;2.60;;;16.30;80.60;;;;;;5086943;28;20070;-67
2021/07/29 04:49:44;;;;;;;4.57;2.58;;;16.20;80.70;;;;;;5065346;28;20031;-68
2021/07/29 04:52:10;;;;;;;5.72;2.65;;;16.20;80.80;;;;;;5083251;28;20073;-68
2021/07/29 04:54:35;;;;;;;6.35;2.88;;;16.20;80.70;;;;;;5067832;28;20400;-68
2021/07/29 04:57:01;;;;;;;5.68;2.90;;;16.10;81.30;;;;;;5086930;28;20392;-68
2021/07/29 04:59:26;;;;;;;4.82;2.50;;;16.10;81.40;;;;;;5068723;28;20028;-67
2021/07/29 05:01:52;;;;;;;4.93;2.88;;;16.10;81.20;;;;;;5061865;28;20028;-67
2021/07/29 05:04:18;;;;;;;5.53;3.10;;;16.30;81.00;;;;;;5069032;28;20613;-68
2021/07/29 05:06:43;;;;;;;5.18;2.92;;;16.30;80.90;;;;;;5088363;28;20026;-68
2021/07/29 05:09:09;;;;;;;4.97;2.95;;;16.40;80.70;;;;;;5069206;28;20123;-67
2021/07/29 05:11:38;;;;;;;6.60;2.95;;;16.50;80.60;;;;;;5066552;28;20405;-68
2021/07/29 05:14:04;;;;;;;5.40;2.80;;;16.50;80.10;;;;;;5068584;28;20112;-68
2021/07/29 05:16:30;;;;;;;7.40;2.90;;;16.50;80.30;;;;;;5084740;28;20024;-68
2021/07/29 05:18:55;;;;;;;4.72;2.50;;;16.50;79.60;;;;;;5069646;28;20046;-67
2021/07/29 05:21:21;;;;;;;5.00;2.75;;;16.40;80.20;;;;;;5088262;28;20267;-68
2021/07/29 05:23:48;;;;;;;4.90;2.85;;;16.50;80.20;;;;;;5084984;28;20028;-67
2021/07/29 05:26:17;;;;;;;4.93;2.72;;;16.40;80.30;;;;;;5087030;28;20032;-68
2021/07/29 05:28:44;;;;;;;6.00;2.60;;;16.30;80.20;;;;;;5060996;28;20038;-68
2021/07/29 05:31:13;;;;;;;5.75;2.85;;;16.20;80.00;;;;;;5087488;28;20028;-68
2021/07/29 05:33:39;;;;;;;5.50;2.85;;;16.20;80.20;;;;;;5086109;28;20039;-68
2021/07/29 05:36:06;;;;;;;7.47;3.22;;;16.30;79.40;;;;;;5069378;28;20596;-68
2021/07/29 05:38:35;;;;;;;4.10;2.30;;;16.30;79.10;;;;;;5069552;28;20042;-68
2021/07/29 05:41:07;;;;;;;4.50;2.47;;;16.30;79.40;;;;;;5080971;28;20067;-68
2021/07/29 05:43:37;;;;;;;9.38;3.22;;;16.40;78.90;;;;;;5087533;28;20032;-68
2021/07/29 05:46:07;;;;;;;6.03;2.60;;;16.40;78.80;;;;;;5062520;28;20050;-68
2021/07/29 05:48:33;;;;;;;4.93;2.47;;;16.40;78.10;;;;;;5083461;28;20032;-68
2021/07/29 05:51:00;;;;;;;7.40;2.70;;;16.50;78.50;;;;;;5067490;28;20545;-67
2021/07/29 05:53:26;;;;;;;6.35;3.00;;;16.50;78.10;;;;;;5085929;28;20036;-68
2021/07/29 05:55:53;;;;;;;3.97;2.50;;;16.50;78.10;;;;;;5085661;28;20115;-68
2021/07/29 05:58:18;;;;;;;7.07;2.17;;;16.60;77.60;;;;;;5051715;28;20044;-67
2021/07/29 06:00:44;;;;;;;6.88;2.28;;;16.70;77.60;;;;;;5067963;28;20028;-68
2021/07/29 06:03:10;;;;;;;6.32;2.47;;;16.70;76.60;;;;;;5085663;28;20063;-68
2021/07/29 06:05:35;;;;;;;10.15;2.78;;;16.80;77.00;;;;;;5066499;28;20016;-68
2021/07/29 06:08:01;;;;;;;8.27;2.50;;;16.80;76.90;;;;;;5083367;28;20028;-68
2021/07/29 06:10:26;;;;;;;5.18;2.42;;;16.80;77.00;;;;;;5086352;28;20514;-67
2021/07/29 06:12:52;;;;;;;5.43;2.67;;;16.90;77.10;;;;;;5085736;28;20035;-67
2021/07/29 06:15:18;;;;;;;10.15;2.53;;;17.00;77.20;;;;;;5085660;28;20055;-68
2021/07/29 06:17:47;;;;;;;7.15;2.97;;;17.10;77.20;;;;;;5083644;28;20051;-68
2021/07/29 06:20:13;;;;;;;6.03;2.47;;;17.10;76.70;;;;;;5084645;28;20732;-67
2021/07/29 06:22:39;;;;;;;7.25;2.78;;;17.30;76.30;;;;;;5086075;28;20032;-67
2021/07/29 06:25:08;;;;;;;5.80;2.50;;;17.30;76.80;;;;;;5082195;28;20056;-67
2021/07/29 06:27:35;;;;;;;7.03;2.55;;;17.40;75.60;;;;;;5064388;28;20461;-67
2021/07/29 06:30:00;;;;;;;6.07;2.38;;;17.20;75.50;;;;;;5062803;28;20111;-67
2021/07/29 06:32:26;;;;;;;5.78;2.42;;;17.30;74.60;;;;;;5066719;28;20115;-68
2021/07/29 06:34:52;;;;;;;6.05;2.28;;;17.30;74.20;;;;;;5085736;28;20023;-67
2021/07/29 06:37:17;;;;;;;7.90;2.70;;;17.30;74.80;;;;;;5065538;28;20565;-67
2021/07/29 06:39:43;;;;;;;8.30;2.28;;;17.30;74.10;;;;;;5086316;28;20055;-67
2021/07/29 06:42:09;;;;;;;6.18;2.20;;;17.40;72.50;;;;;;5085812;28;20031;-67
2021/07/29 06:44:34;;;;;;;7.18;2.13;;;17.50;73.30;;;;;;5069648;28;20038;-67
2021/07/29 06:47:00;;;;;;;6.55;2.60;;;17.40;71.80;;;;;;5069846;28;20027;-67
2021/07/29 06:49:31;;;;;;;7.82;2.42;;;17.60;72.30;;;;;;5091028;28;20027;-68
2021/07/29 06:51:56;;;;;;;9.13;2.65;;;17.80;71.60;;;;;;5072940;28;20027;-67
2021/07/29 06:54:22;;;;;;;4.03;1.75;;;17.70;72.60;;;;;;5088505;28;20039;-68
2021/07/29 06:56:48;;;;;;;4.70;1.70;;;17.90;71.60;;;;;;5073307;28;20081;-67
2021/07/29 06:59:13;;;;;;;4.45;1.90;;;18.00;71.60;;;;;;5067599;28;20035;-68
2021/07/29 07:01:39;;;;;;;7.45;2.17;;;18.00;71.60;;;;;;5084079;28;20031;-67
2021/07/29 07:04:05;;;;;;;5.35;2.10;;;18.00;71.40;;;;;;5085848;28;20032;-67
2021/07/29 07:06:34;;;;;;;4.28;1.73;;;18.00;71.10;;;;;;5071658;28;20032;-68
2021/07/29 07:08:59;;;;;;;6.03;2.05;;;18.00;70.70;;;;;;5065327;28;20425;-68
2021/07/29 07:11:25;;;;;;;7.70;2.35;;;18.10;69.40;;;;;;5087863;28;20028;-68
2021/07/29 07:13:51;;;;;;;4.65;2.00;;;18.40;70.20;;;;;;5066295;28;20032;-67
2021/07/29 07:16:17;;;;;;;10.18;1.92;;;18.30;69.50;;;;;;5071194;28;20492;-67
2021/07/29 07:18:43;;;;;;;4.50;2.08;;;18.10;70.40;;;;;;5071577;28;20556;-69
2021/07/29 07:21:10;;;;;;;7.13;1.90;;;18.30;71.10;;;;;;5070916;28;20514;-68
2021/07/29 07:23:38;;;;;;;7.20;1.95;;;18.00;70.00;;;;;;5064013;28;20334;-67
2021/07/29 07:26:04;;;;;;;6.25;1.98;;;18.00;68.90;;;;;;5091193;28;20038;-68
2021/07/29 07:28:30;;;;;;;6.15;2.00;;;18.30;68.10;;;;;;5088229;28;20024;-68
2021/07/29 07:30:56;;;;;;;8.07;1.83;;;18.10;68.80;;;;;;5088844;28;20540;-68
2021/07/29 07:33:22;;;;;;;4.95;2.05;;;18.30;68.60;;;;;;5071383;28;20036;-68
2021/07/29 07:35:49;;;;;;;6.72;1.83;;;18.50;68.50;;;;;;5073183;28;20101;-68
2021/07/29 07:38:15;;;;;;;4.70;1.90;;;18.30;68.40;;;;;;5070794;28;20036;-67
2021/07/29 07:40:41;;;;;;;5.18;1.83;;;18.20;68.20;;;;;;5087894;28;20043;-68
2021/07/29 07:43:08;;;;;;;8.75;2.00;;;18.20;68.90;;;;;;5053407;28;20420;-67
2021/07/29 07:45:35;;;;;;;4.57;1.60;;;18.30;68.20;;;;;;5054258;28;20519;-67
2021/07/29 07:48:01;;;;;;;6.18;1.63;;;18.30;67.60;;;;;;5089821;28;20392;-67
2021/07/29 07:50:27;;;;;;;5.53;1.75;;;18.30;68.40;;;;;;5070668;28;20027;-68
2021/07/29 07:52:52;;;;;;;4.97;1.85;;;18.70;67.00;;;;;;5071964;28;20028;-68
2021/07/29 07:55:18;;;;;;;3.40;1.45;;;18.70;66.10;;;;;;5089304;28;20028;-67
2021/07/29 07:57:44;;;;;;;3.58;1.52;;;18.50;65.80;;;;;;5067580;28;20351;-68
2021/07/29 08:00:10;;;;;;;7.13;1.67;;;18.70;64.60;;;;;;5086495;28;20511;-68
2021/07/29 08:02:36;;;;;;;8.05;1.70;;;18.70;65.80;;;;;;5069276;28;20118;-68
2021/07/29 08:05:02;;;;;;;6.35;1.80;;;19.10;66.40;;;;;;5089052;28;20143;-68
2021/07/29 08:07:27;;;;;;;3.92;1.42;;;19.00;65.20;;;;;;5071019;28;20085;-67
2021/07/29 08:09:53;;;;;;;8.27;1.90;;;18.80;64.80;;;;;;5082695;28;20052;-68
2021/07/29 08:12:19;;;;;;;7.40;2.20;;;18.90;65.10;;;;;;5069890;28;20021;-68
2021/07/29 08:14:44;;;;;;;4.88;1.40;;;18.50;65.40;;;;;;5088492;28;20016;-68
2021/07/29 08:17:10;;;;;;;5.05;1.35;;;18.20;64.90;;;;;;5065196;28;20029;-68
2021/07/29 08:19:36;;;;;;;5.15;1.45;;;18.10;64.80;;;;;;5089835;28;20032;-68
2021/07/29 08:22:02;;;;;;;4.18;1.63;;;18.10;66.50;;;;;;5070570;28;20020;-68
2021/07/29 08:24:27;;;;;;;2.38;1.20;;;18.50;66.30;;;;;;5088910;28;20024;-68
2021/07/29 08:26:53;;;;;;;3.80;1.45;;;18.60;64.70;;;;;;5071034;28;20020;-68
2021/07/29 08:29:18;;;;;;;5.20;1.77;;;18.50;64.70;;;;;;5068965;28;20404;-68
2021/07/29 08:31:44;;;;;;;7.45;1.92;;;18.20;66.10;;;;;;5086528;28;20044;-67
2021/07/29 08:34:10;;;;;;;10.80;1.83;;;18.20;65.20;;;;;;5083400;28;20521;-67
2021/07/29 08:36:35;;;;;;;6.75;1.63;;;18.90;64.10;;;;;;5070375;28;20038;-67
2021/07/29 08:39:01;;;;;;;6.25;1.90;;;19.60;64.70;;;;;;5071290;28;20023;-67
2021/07/29 08:41:26;;;;;;;9.35;1.88;;;19.60;64.50;;;;;;5068654;28;20067;-68
2021/07/29 08:43:52;;;;;;;8.30;1.85;;;20.00;61.80;;;;;;5070690;28;20024;-67
2021/07/29 08:46:19;;;;;;;8.90;1.60;;;19.90;60.50;;;;;;5069807;28;20078;-68
2021/07/29 08:48:47;;;;;;;4.28;1.42;;;19.80;60.90;;;;;;5069609;28;20315;-68
2021/07/29 08:51:22;;;;;;;8.10;1.48;;;20.40;61.20;;;;;;5086710;28;20031;-68
2021/07/29 08:53:52;;;;;;;6.22;1.33;;;20.50;58.30;;;;;;5069650;28;20024;-69
2021/07/29 08:56:28;;;;;;;5.22;1.50;;;20.10;58.30;;;;;;5083060;28;20021;-68
2021/07/29 08:58:54;;;;;;;6.32;1.52;;;20.20;57.80;;;;;;5068926;28;20020;-69
2021/07/29 09:01:20;;;;;;;6.90;1.98;;;19.70;58.20;;;;;;5086460;28;20020;-69
2021/07/29 09:03:48;;;;;;;4.65;1.23;;;19.50;59.50;;;;;;5087197;28;20147;-68
2021/07/29 09:06:15;;;;;;;3.80;1.30;;;19.50;58.40;;;;;;5067093;28;20066;-69
2021/07/29 09:08:44;;;;;;;7.65;1.52;;;19.70;59.40;;;;;;5084800;28;20020;-69
2021/07/29 09:11:36;;;;;;;2.88;1.10;;;20.10;58.70;;;;;;5086423;28;20019;-69
2021/07/29 09:14:18;;;;;;;7.40;1.73;;;20.70;57.20;;;;;;5064942;28;20032;-69
2021/07/29 09:16:56;;;;;;;7.80;1.52;;;20.50;55.20;;;;;;5085349;28;20036;-69
2021/07/29 09:19:40;;;;;;;4.72;1.50;;;21.00;54.10;;;;;;5080586;28;20036;-69
2021/07/29 09:22:16;;;;;;;5.03;1.45;;;20.50;54.70;;;;;;5065657;28;20618;-68
2021/07/29 09:25:04;;;;;;;10.75;1.60;;;20.50;55.20;;;;;;5082139;28;20031;-69
2021/07/29 09:27:38;;;;;;;5.57;1.02;;;20.80;55.60;;;;;;5067646;28;20407;-69
2021/07/29 09:30:16;;;;;;;6.15;1.42;;;20.70;54.00;;;;;;5065761;28;20047;-69
2021/07/29 09:33:10;;;;;;;4.40;1.25;;;20.70;53.80;;;;;;5080820;28;20515;-69
2021/07/29 09:35:46;;;;;;;6.05;1.40;;;20.10;55.30;;;;;;5053824;28;20122;-69
2021/07/29 09:38:25;;;;;;;3.72;1.40;;;20.00;55.80;;;;;;5085931;28;20035;-69
2021/07/29 09:40:59;;;;;;;3.47;1.20;;;20.10;54.70;;;;;;5086121;28;20034;-69
2021/07/29 09:43:29;;;;;;;4.75;1.15;;;19.90;55.50;;;;;;5086954;28;20040;-69
2021/07/29 09:45:56;;;;;;;3.60;1.00;;;19.40;54.30;;;;;;5069602;28;20480;-68
2021/07/29 09:48:23;;;;;;;7.78;1.38;;;19.10;56.50;;;;;;5051773;28;20388;-68
2021/07/29 09:50:58;;;;;;;4.38;1.48;;;19.20;57.10;;;;;;5088070;28;20024;-68
2021/07/29 09:53:25;;;;;;;5.38;1.02;;;19.80;55.50;;;;;;5061209;28;20043;-69
2021/07/29 09:55:51;;;;;;;4.25;1.30;;;19.60;53.00;;;;;;5085292;28;20031;-69
2021/07/29 09:58:17;;;;;;;5.32;1.08;;;19.30;53.70;;;;;;5081736;28;20040;-69
2021/07/29 10:00:43;;;;;;;8.18;1.48;;;19.40;55.20;;;;;;5050521;28;20522;-69
2021/07/29 10:03:09;;;;;;;5.63;1.50;;;19.30;55.60;;;;;;5085047;28;20119;-69
2021/07/29 10:06:04;;;;;;;5.95;1.40;;;19.50;55.00;;;;;;5068259;28;20078;-69
2021/07/29 10:08:40;;;;;;;5.28;1.23;;;19.50;56.30;;;;;;5063595;28;20503;-69
2021/07/29 10:11:20;;;;;;;3.88;1.23;;;19.30;56.00;;;;;;5051753;28;20024;-69
2021/07/29 10:13:46;;;;;;;2.83;1.10;;;19.20;56.00;;;;;;5066119;28;20028;-69
2021/07/29 10:16:17;;;;;;;5.10;1.38;;;19.10;56.70;;;;;;5067809;28;20345;-68
2021/07/29 10:18:53;;;;;;;5.70;1.67;;;19.00;57.30;;;;;;5085967;28;20103;-68
2021/07/29 10:21:30;;;;;;;3.92;1.27;;;19.90;57.00;;;;;;5066544;28;20116;-69
2021/07/29 10:24:00;;;;;;;8.02;1.25;;;20.60;52.60;;;;;;5068295;28;20039;-69
2021/07/29 10:26:29;;;;;;;6.78;1.58;;;20.50;51.70;;;;;;5090731;28;20061;-69
2021/07/29 10:29:18;;;;;;;5.35;1.45;;;20.70;50.40;;;;;;5072331;28;20480;-69
2021/07/29 10:31:57;;;;;;;9.15;1.63;;;21.20;50.00;;;;;;5059142;28;20040;-69
2021/07/29 10:34:27;;;;;;;7.85;1.30;;;21.40;49.00;;;;;;5069683;28;20081;-69
2021/07/29 10:36:54;;;;;;;7.60;1.23;;;21.10;50.70;;;;;;5089385;28;20453;-69
2021/07/29 10:39:20;;;;;;;8.80;1.65;;;21.70;49.80;;;;;;5090671;28;20039;-70
2021/07/29 10:41:48;;;;;;;3.65;1.20;;;22.00;50.10;;;;;;5090010;28;20365;-69
2021/07/29 10:44:50;;;;;;;8.20;1.23;;;22.10;48.20;;;;;;5088631;28;20024;-70
2021/07/29 10:47:34;;;;;;;10.50;1.83;;;22.00;49.70;;;;;;5004945;28;20026;-70
2021/07/29 10:50:06;;;;;;;6.95;1.23;;;21.00;49.20;;;;;;5048869;28;20067;-69
2021/07/29 10:52:33;;;;;;;8.48;1.45;;;20.50;50.50;;;;;;5069162;28;20025;-69
2021/07/29 10:55:01;;;;;;;3.13;1.02;;;20.40;50.90;;;;;;5072124;28;20414;-69
2021/07/29 10:57:28;;;;;;;7.38;1.30;;;20.50;50.60;;;;;;5070743;28;20138;-69
2021/07/29 10:59:54;;;;;;;3.97;1.00;;;20.30;50.40;;;;;;5086415;28;20401;-69
2021/07/29 11:02:42;;;;;;;4.45;1.00;;;20.10;50.60;;;;;;5069500;28;20040;-69
2021/07/29 11:05:09;;;;;;;4.28;1.00;;;20.00;49.60;;;;;;5068210;28;20388;-69
2021/07/29 11:07:40;;;;;;;4.18;1.15;;;20.20;50.20;;;;;;5070847;28;20187;-69
2021/07/29 11:10:12;;;;;;;4.40;1.30;;;20.00;51.20;;;;;;5086820;28;20065;-69
2021/07/29 11:12:39;;;;;;;6.00;1.50;;;19.80;51.30;;;;;;5067899;28;20043;-69
2021/07/29 11:15:07;;;;;;;5.22;1.23;;;19.90;51.90;;;;;;5083108;28;20035;-69
2021/07/29 11:17:33;;;;;;;3.85;1.40;;;20.10;51.30;;;;;;5088841;28;20020;-69
2021/07/29 11:19:58;;;;;;;6.53;1.35;;;20.40;51.10;;;;;;5088101;28;20096;-69
2021/07/29 11:22:24;;;;;;;7.57;1.30;;;20.50;50.60;;;;;;5088813;28;20044;-68
2021/07/29 11:24:50;;;;;;;5.07;1.50;;;20.70;49.20;;;;;;5072945;28;20442;-70
2021/07/29 11:27:31;;;;;;;7.10;1.58;;;21.20;47.90;;;;;;5066839;28;20155;-69
2021/07/29 11:30:01;;;;;;;5.22;1.25;;;21.50;46.80;;;;;;5088404;28;20051;-69
2021/07/29 11:32:38;;;;;;;5.65;1.20;;;21.50;48.10;;;;;;5087593;28;20461;-69
2021/07/29 11:35:04;;;;;;;4.50;1.15;;;22.00;47.90;;;;;;5083914;28;20093;-69
2021/07/29 11:37:41;;;;;;;7.32;1.42;;;22.30;46.50;;;;;;5070552;28;20126;-69
2021/07/29 11:40:17;;;;;;;3.70;1.20;;;22.40;46.50;;;;;;5081787;28;20039;-69
2021/07/29 11:42:43;;;;;;;8.13;1.63;;;22.10;47.70;;;;;;5089057;28;20093;-69
2021/07/29 11:45:32;;;;;;;3.30;0.98;;;22.10;47.00;;;;;;5069646;28;20028;-69
2021/07/29 11:47:58;;;;;;;3.22;1.20;;;23.00;45.60;;;;;;5069629;28;20031;-69
2021/07/29 11:50:41;;;;;;;4.30;1.40;;;22.20;45.20;;;;;;5071845;28;20028;-69
2021/07/29 11:53:08;;;;;;;5.90;1.50;;;21.30;46.60;;;;;;5069802;28;20039;-69
2021/07/29 11:55:36;;;;;;;5.22;1.50;;;20.70;47.80;;;;;;5071347;28;20197;-69
2021/07/29 11:58:06;;;;;;;7.65;1.48;;;20.30;49.50;;;;;;5084800;28;20023;-69
2021/07/29 12:00:32;;;;;;;2.97;1.10;;;20.00;50.40;;;;;;5086904;28;20055;-69
2021/07/29 12:02:57;;;;;;;4.68;1.50;;;19.90;50.80;;;;;;5068668;28;20020;-69
2021/07/29 12:05:27;;;;;;;4.20;1.48;;;19.70;51.40;;;;;;5068373;28;20039;-69
2021/07/29 12:07:54;;;;;;;4.22;1.50;;;19.30;53.60;;;;;;5068197;28;20053;-69
2021/07/29 12:10:22;;;;;;;5.90;1.77;;;18.40;63.70;;;;;;5070356;28;20028;-68
2021/07/29 12:12:48;;;;;;;5.32;2.20;;;17.40;72.20;;;;;;5068765;28;20154;-68
2021/07/29 12:15:14;;;;;;;4.85;1.65;;;16.70;78.50;;;;;;5088661;28;20028;-68
2021/07/29 12:17:40;;;;;;;3.78;1.77;;;16.10;82.40;;;;;;5036208;28;20073;-68
2021/07/29 12:20:06;;;;;;;7.00;1.85;;;16.00;81.70;;;;;;5088689;28;20446;-68
2021/07/29 12:22:34;;;;;;;4.57;2.20;;;16.00;83.10;;;;;;5068898;28;20032;-68
2021/07/29 12:25:02;;;;;;;5.50;2.05;;;16.00;82.40;;;;;;5069577;28;20024;-68
2021/07/29 12:27:42;;;;;;;7.45;2.13;;;16.20;79.40;;;;;;5088377;28;20103;-68
2021/07/29 12:30:38;;;;;;;5.85;2.28;;;16.30;79.90;;;;;;5088631;28;20405;-68
2021/07/29 12:33:10;;;;;;;8.68;2.30;;;16.50;79.60;;;;;;5064051;28;20028;-67
2021/07/29 12:35:37;;;;;;;5.60;2.17;;;16.60;78.90;;;;;;5086998;28;20144;-68
2021/07/29 12:38:03;;;;;;;6.43;2.40;;;16.90;77.40;;;;;;5087647;28;20031;-68
2021/07/29 12:40:31;;;;;;;4.32;1.85;;;17.90;76.00;;;;;;5064985;28;20024;-68
2021/07/29 12:43:20;;;;;;;7.97;1.77;;;18.30;75.80;;;;;;5067204;28;20047;-68
2021/07/29 12:45:55;;;;;;;4.55;1.80;;;18.70;74.20;;;;;;5067134;28;20085;-68
2021/07/29 12:48:22;;;;;;;4.55;1.52;;;19.80;69.20;;;;;;5065525;28;20043;-68
2021/07/29 12:50:47;;;;;;;5.45;1.48;;;20.30;65.60;;;;;;5064504;28;20064;-69